CYVR/YVR METAR and TAF weather

Enter ICAO airport designator
Station Type Date Time Source
CYVR METAR 2018/04/23 11:00 UTC NOAA

CYVR 231100Z 00000KT 20SM SKC 06/02 A3038 RMK SLP288


Station Type Date Time Source
CYVR Decoded METAR 2018/04/23 11:00 UTC NOAA

Vancouver International Air-Port, B. C., Canada (CYVR) 49-11N 123-10W 2M
Apr 23, 2018 - 07:00 AM EDT / 2018.04.23 1100 UTC
Wind: Calm:0
Visibility: 20 mile(s):0
Sky conditions: clear
Temperature: 42 F (6 C)
Dew Point: 35 F (2 C)
Relative Humidity: 75%
Pressure (altimeter): 30.38 in. Hg (1028 hPa)
ob: CYVR 231100Z 00000KT 20SM SKC 06/02 A3038 RMK SLP288
cycle: 11

Station Type Date Time Source
CYVR TAF 2018/04/23 09:41 UTC NOAA

TAF CYVR 230838Z 2309/2412 05005KT P6SM SKC
FM231800 28010KT P6SM SKC
FM240600 VRB03KT P6SM SCT240
RMK NXT FCST BY 231200Z


Example: see airport list